Terminal Aerodrome Forecast
Issued by NWS

Home | Current Version | Previous Version | Text Only | Print | Product List | Glossary On
Versions: 1 2 3 4 5 6 7 8 9 10 11 12 13 14 15 16 17 18 19
000
FTUS45 KABQ 282300
TAFAEG
TAF
KAEG 282320Z 0100/0124 VRB05KT P6SM FEW045 SCT060
     FM010200 17007KT P6SM FEW035 SCT050
     FM010700 VRB06KT P6SM VCFG SCT005
      TEMPO 0110/0114 1SM BR OVC005
     FM011900 19008KT P6SM FEW045=

USA.gov is the U.S. government's official web portal to all federal, state and local government web resources and services.